createdAt,value
2022-12-25T00:04:13.529Z,6.58
2022-12-25T00:09:16.120Z,6.61
2022-12-25T00:14:19.971Z,6.68
2022-12-25T00:19:22.442Z,6.72
2022-12-25T00:24:24.924Z,6.76
2022-12-25T00:29:28.725Z,6.78
2022-12-25T00:34:31.277Z,6.78
2022-12-25T00:39:33.792Z,6.80
2022-12-25T00:44:37.763Z,6.81
2022-12-25T00:49:40.230Z,6.81
2022-12-25T00:54:42.708Z,6.77
2022-12-25T00:59:46.548Z,6.77
2022-12-25T01:04:49.184Z,6.75
2022-12-25T01:10:09.573Z,6.75
2022-12-25T01:15:14.116Z,6.74
2022-12-25T01:20:17.672Z,6.75
2022-12-25T01:25:20.314Z,6.75
2022-12-25T01:30:24.143Z,6.71
2022-12-25T01:35:26.686Z,6.68
2022-12-25T01:40:29.165Z,6.65
2022-12-25T01:45:41.121Z,6.64
2022-12-25T01:50:50.344Z,6.67
2022-12-25T01:55:57.808Z,6.70
2022-12-25T02:01:01.719Z,6.63
2022-12-25T02:06:05.508Z,6.51
2022-12-25T02:11:29.457Z,6.43
2022-12-25T02:16:35.625Z,6.36
2022-12-25T02:22:07.637Z,6.25
2022-12-25T02:27:21.507Z,6.13
2022-12-25T02:32:31.400Z,6.02
2022-12-25T02:37:38.935Z,5.93
2022-12-25T02:43:06.055Z,5.81
2022-12-25T02:48:30.140Z,5.68
2022-12-25T02:53:51.963Z,5.53
2022-12-25T02:59:12.409Z,5.39
2022-12-25T03:04:38.403Z,5.21
2022-12-25T03:10:01.664Z,5.14
2022-12-25T03:15:24.246Z,5.07
2022-12-25T03:20:45.847Z,4.95
2022-12-25T03:26:06.288Z,4.86
2022-12-25T03:31:17.090Z,4.76
2022-12-25T03:36:28.194Z,4.68
2022-12-25T03:41:56.811Z,4.66
2022-12-25T03:47:24.182Z,4.60
2022-12-25T03:52:47.166Z,4.47
2022-12-25T03:58:07.705Z,4.38
2022-12-25T04:03:28.065Z,4.35
2022-12-25T04:08:50.111Z,4.34
2022-12-25T04:14:10.021Z,4.27
2022-12-25T04:19:30.294Z,4.16
2022-12-25T04:24:51.904Z,4.15
2022-12-25T04:30:12.146Z,4.14
2022-12-25T04:35:32.494Z,4.14
2022-12-25T04:40:36.347Z,4.13
2022-12-25T04:45:38.846Z,4.16
2022-12-25T04:50:41.348Z,4.22
2022-12-25T04:55:45.162Z,4.27
2022-12-25T05:00:47.701Z,4.34
2022-12-25T05:05:50.176Z,4.43
2022-12-25T05:10:53.994Z,4.48
2022-12-25T05:15:56.493Z,4.54
2022-12-25T05:20:59.014Z,4.57
2022-12-25T05:26:06.683Z,4.60
2022-12-25T05:31:09.221Z,4.63
2022-12-25T05:36:13.420Z,4.65
2022-12-25T05:41:17.396Z,4.67
2022-12-25T05:46:19.919Z,4.71
2022-12-25T05:51:22.443Z,4.72
2022-12-25T05:56:26.414Z,4.69
2022-12-25T06:01:30.144Z,4.66
2022-12-25T06:06:32.734Z,4.65
2022-12-25T06:11:36.527Z,4.67
2022-12-25T06:16:39.134Z,4.70
2022-12-25T06:21:41.643Z,4.68
2022-12-25T06:26:45.443Z,4.63
2022-12-25T06:31:47.970Z,4.60
2022-12-25T06:36:50.750Z,4.55
2022-12-25T06:41:54.547Z,4.54
2022-12-25T06:46:57.037Z,4.54
2022-12-25T06:51:59.579Z,4.56
2022-12-25T06:57:04.624Z,4.56
2022-12-25T07:02:07.239Z,4.56
2022-12-25T07:07:10.525Z,4.56
2022-12-25T07:12:18.644Z,4.58
2022-12-25T07:17:21.600Z,4.56
2022-12-25T07:22:24.189Z,4.54
2022-12-25T07:27:28.019Z,4.48
2022-12-25T07:32:31.138Z,4.50
2022-12-25T07:37:33.667Z,4.46
2022-12-25T07:42:37.458Z,4.43
2022-12-25T07:47:39.942Z,4.38
2022-12-25T07:52:43.784Z,4.36
2022-12-25T07:57:47.863Z,4.32
2022-12-25T08:02:50.691Z,4.30
2022-12-25T08:07:57.746Z,4.25
2022-12-25T08:13:01.999Z,4.18
2022-12-25T08:18:04.691Z,4.09
2022-12-25T08:23:07.457Z,4.08
2022-12-25T08:28:11.289Z,4.08
2022-12-25T08:33:13.767Z,4.08
2022-12-25T08:38:16.246Z,4.11
2022-12-25T08:43:20.072Z,4.16
2022-12-25T08:48:22.629Z,4.27
2022-12-25T08:53:25.489Z,4.30
2022-12-25T08:58:29.636Z,4.37
2022-12-25T09:03:33.122Z,4.42
2022-12-25T09:08:38.862Z,4.48
2022-12-25T09:13:46.975Z,4.50
2022-12-25T09:18:50.019Z,4.55
2022-12-25T09:23:52.500Z,4.60
2022-12-25T09:28:56.376Z,4.64
2022-12-25T09:33:59.366Z,4.68
2022-12-25T09:39:02.281Z,4.77
2022-12-25T09:44:10.582Z,4.85
2022-12-25T09:49:20.782Z,4.94
2022-12-25T09:54:38.572Z,5.01
2022-12-25T09:59:43.863Z,5.10
2022-12-25T10:05:05.498Z,5.21
2022-12-25T10:10:24.504Z,5.29
2022-12-25T10:15:36.716Z,5.35
2022-12-25T10:20:48.288Z,5.40
2022-12-25T10:25:52.587Z,5.47
2022-12-25T10:30:59.490Z,5.55
2022-12-25T10:36:02.569Z,5.62
2022-12-25T10:41:19.845Z,5.68
2022-12-25T10:46:26.326Z,5.75
2022-12-25T10:51:31.838Z,5.80
2022-12-25T10:56:34.320Z,5.88
2022-12-25T11:01:38.381Z,5.95
2022-12-25T11:06:40.965Z,6.04
2022-12-25T11:11:43.453Z,6.09
2022-12-25T11:16:47.614Z,6.17
2022-12-25T11:21:52.102Z,6.21
2022-12-25T11:26:56.344Z,6.24
2022-12-25T11:32:03.078Z,6.24
2022-12-25T11:37:12.061Z,6.27
2022-12-25T11:42:22.103Z,6.27
2022-12-25T11:47:34.076Z,6.24
2022-12-25T11:52:39.819Z,6.27
2022-12-25T11:57:45.602Z,6.34
2022-12-25T12:02:55.844Z,6.37
2022-12-25T12:08:01.147Z,6.40
2022-12-25T12:13:20.850Z,6.42
2022-12-25T12:18:31.321Z,6.38
2022-12-25T12:23:36.961Z,6.40
2022-12-25T12:28:45.966Z,6.43
2022-12-25T12:33:55.505Z,6.46
2022-12-25T12:39:01.527Z,6.42
2022-12-25T12:44:07.512Z,6.39
2022-12-25T12:49:21.419Z,6.34
2022-12-25T12:54:26.256Z,6.29
2022-12-25T12:59:38.798Z,6.27
2022-12-25T13:04:54.530Z,6.21
2022-12-25T13:10:06.710Z,6.18
2022-12-25T13:15:13.963Z,6.14
2022-12-25T13:20:37.813Z,6.13
2022-12-25T13:25:40.338Z,6.12
2022-12-25T13:30:43.480Z,6.12
2022-12-25T13:35:48.176Z,6.15
2022-12-25T13:41:06.794Z,6.16
2022-12-25T13:46:13.638Z,6.15
2022-12-25T13:51:17.648Z,6.17
2022-12-25T13:56:20.173Z,6.21
2022-12-25T14:01:22.885Z,6.21
2022-12-25T14:06:29.907Z,6.21
2022-12-25T14:11:33.504Z,6.19
2022-12-25T14:16:36.562Z,6.19
2022-12-25T14:21:49.120Z,6.16
2022-12-25T14:26:58.285Z,6.14
2022-12-25T14:32:05.456Z,6.06
2022-12-25T14:37:16.793Z,5.98
2022-12-25T14:42:22.022Z,5.95
2022-12-25T14:47:24.697Z,5.96
2022-12-25T14:52:33.284Z,5.94
2022-12-25T14:57:39.847Z,5.91
2022-12-25T15:02:46.024Z,5.93
2022-12-25T15:07:59.902Z,5.95
2022-12-25T15:13:03.177Z,5.96
2022-12-25T15:18:06.024Z,5.97
2022-12-25T15:23:20.086Z,5.98
2022-12-25T15:28:23.059Z,5.92
2022-12-25T15:33:25.548Z,5.89
2022-12-25T15:38:36.321Z,5.91
2022-12-25T15:43:41.022Z,5.92
2022-12-25T15:48:44.092Z,5.92
2022-12-25T15:53:48.042Z,5.92
2022-12-25T15:58:50.738Z,5.92
2022-12-25T16:03:53.432Z,5.95
2022-12-25T16:08:57.263Z,5.99
2022-12-25T16:13:59.841Z,6.00
2022-12-25T16:19:02.348Z,6.01
2022-12-25T16:24:07.055Z,6.03
2022-12-25T16:29:10.194Z,6.04
2022-12-25T16:34:12.747Z,6.08
2022-12-25T16:39:16.765Z,6.09
2022-12-25T16:44:19.476Z,6.12
2022-12-25T16:49:22.443Z,6.15
2022-12-25T16:54:26.368Z,6.16
2022-12-25T16:59:29.050Z,6.18
2022-12-25T17:04:31.572Z,6.19
2022-12-25T17:09:40.408Z,6.20
2022-12-25T17:14:46.583Z,6.22
2022-12-25T17:19:49.127Z,6.25
2022-12-25T17:24:52.965Z,6.29
2022-12-25T17:29:55.475Z,6.29
2022-12-25T17:34:57.999Z,6.30
2022-12-25T17:40:01.871Z,6.35
2022-12-25T17:45:04.748Z,6.37
2022-12-25T17:50:08.510Z,6.38
2022-12-25T17:55:12.394Z,6.38
2022-12-25T18:00:15.605Z,6.40
2022-12-25T18:05:18.120Z,6.43
2022-12-25T18:10:21.979Z,6.40
2022-12-25T18:15:24.480Z,6.38
2022-12-25T18:20:26.985Z,6.40
2022-12-25T18:25:33.551Z,6.42
2022-12-25T18:30:39.861Z,6.44
2022-12-25T18:40:54.660Z,6.44
2022-12-25T18:45:57.909Z,6.43
2022-12-25T18:51:02.696Z,6.41
2022-12-25T18:56:09.216Z,6.44
2022-12-25T19:01:14.496Z,6.44
2022-12-25T19:06:19.201Z,6.45
2022-12-25T19:11:24.008Z,6.47
2022-12-25T19:16:26.540Z,6.48
2022-12-25T19:21:29.112Z,6.47
2022-12-25T19:26:32.962Z,6.47
2022-12-25T19:31:37.061Z,6.43
2022-12-25T19:36:39.795Z,6.47
2022-12-25T19:41:44.399Z,6.51
2022-12-25T19:46:46.931Z,6.55
2022-12-25T19:51:49.491Z,6.55
2022-12-25T19:56:53.347Z,6.54
2022-12-25T20:01:56.050Z,6.51
2022-12-25T20:06:58.732Z,6.47
2022-12-25T20:12:02.907Z,6.46
2022-12-25T20:17:08.323Z,6.44
2022-12-25T20:22:14.851Z,6.43
2022-12-25T20:27:18.782Z,6.44
2022-12-25T20:32:21.347Z,6.43
2022-12-25T20:37:23.980Z,6.42
2022-12-25T20:42:27.961Z,6.40
2022-12-25T20:47:30.479Z,6.35
2022-12-25T20:52:33.011Z,6.27
2022-12-25T20:57:36.900Z,6.21
2022-12-25T21:02:39.761Z,6.18
2022-12-25T21:07:42.363Z,6.15
2022-12-25T21:12:46.270Z,6.12
2022-12-25T21:17:48.885Z,6.10
2022-12-25T21:22:51.380Z,6.10
2022-12-25T21:27:55.302Z,6.10
2022-12-25T21:33:17.233Z,6.12
2022-12-25T21:38:19.884Z,6.17
2022-12-25T21:43:23.942Z,6.23
2022-12-25T21:48:26.517Z,6.28
2022-12-25T21:53:29.054Z,6.30
2022-12-25T21:58:32.976Z,6.31
2022-12-25T22:03:35.651Z,6.34
2022-12-25T22:08:38.272Z,6.39
2022-12-25T22:13:59.605Z,6.40
2022-12-25T22:19:19.999Z,6.42
2022-12-25T22:24:22.558Z,6.43
2022-12-25T22:29:26.603Z,6.42
2022-12-25T22:34:29.214Z,6.37
2022-12-25T22:39:32.776Z,6.34
2022-12-25T22:44:37.000Z,6.41
2022-12-25T22:49:39.717Z,6.43
2022-12-25T22:54:42.400Z,6.43
2022-12-25T22:59:47.261Z,6.47
2022-12-25T23:04:49.890Z,6.52
2022-12-25T23:09:52.404Z,6.53
2022-12-25T23:14:56.566Z,6.53
2022-12-25T23:20:18.153Z,6.53
2022-12-25T23:25:38.431Z,6.56
2022-12-25T23:30:42.277Z,6.53
2022-12-25T23:35:44.768Z,6.64
2022-12-25T23:40:47.254Z,6.72
2022-12-25T23:45:51.059Z,6.77
2022-12-25T23:50:53.580Z,6.82
2022-12-25T23:55:57.472Z,6.87
